Time;durP1;ratioP1;P1;durP2;ratioP2;P2;SDS_P1;SDS_P2;PMS_P1;PMS_P2;Temp;Humidity;BMP_temperature;BMP_pressure;BME280_temperature;BME280_humidity;BME280_pressure;Samples;Min_cycle;Max_cycle;Signal;HPM_P1;HPM_P2
2022/04/06 00:01:33;;;;;;;26.42;7.95;;;;;;;;;;5065935;28;20136;-63
2022/04/06 00:03:59;;;;;;;25.23;7.95;;;;;;;;;;5066173;28;20043;-62
2022/04/06 00:06:25;;;;;;;31.67;8.05;;;;;;;;;;5066259;28;20044;-63
2022/04/06 00:08:51;;;;;;;23.83;6.95;;;;;;;;;;5066228;28;20056;-62
2022/04/06 00:11:18;;;;;;;24.27;7.25;;;;;;;;;;5066123;28;20037;-62
2022/04/06 00:13:44;;;;;;;23.95;7.22;;;;;;;;;;5065295;28;20032;-62
2022/04/06 00:16:10;;;;;;;27.88;7.25;;;;;;;;;;5065794;28;20398;-62
2022/04/06 00:18:36;;;;;;;24.98;7.00;;;;;;;;;;5065163;28;20049;-62
2022/04/06 00:21:03;;;;;;;19.73;6.55;;;;;;;;;;5065582;28;20490;-62
2022/04/06 00:23:29;;;;;;;26.30;7.53;;;;;;;;;;5065975;28;20072;-62
2022/04/06 00:25:55;;;;;;;23.52;7.80;;;;;;;;;;5065617;28;20123;-62
2022/04/06 00:28:22;;;;;;;23.88;8.20;;;;;;;;;;5065461;28;20853;-63
2022/04/06 00:30:48;;;;;;;27.48;7.43;;;;;;;;;;5066022;28;20037;-63
2022/04/06 00:33:14;;;;;;;26.88;8.00;;;;;;;;;;5065394;28;20043;-63
2022/04/06 00:35:40;;;;;;;23.33;7.57;;;;;;;;;;5065726;28;20035;-63
2022/04/06 00:38:07;;;;;;;23.88;7.32;;;;;;;;;;5065185;28;20048;-62
2022/04/06 00:40:34;;;;;;;32.67;8.57;;;;;;;;;;5064038;28;20052;-63
2022/04/06 00:43:00;;;;;;;27.50;8.38;;;;;;;;;;5064774;28;20047;-62
2022/04/06 00:45:27;;;;;;;21.13;9.27;;;;;;;;;;5065768;28;20086;-62
2022/04/06 00:47:53;;;;;;;28.08;9.00;;;;;;;;;;5065133;28;20130;-63
2022/04/06 00:50:20;;;;;;;24.40;9.32;;;;;;;;;;5065539;28;20150;-63
2022/04/06 00:52:48;;;;;;;27.08;9.30;;;;;;;;;;5065235;28;20048;-63
2022/04/06 00:55:14;;;;;;;25.95;10.48;;;;;;;;;;5064557;28;20052;-62
2022/04/06 00:57:40;;;;;;;25.52;10.40;;;;;;;;;;5064489;28;20081;-62
2022/04/06 01:00:08;;;;;;;20.95;10.02;;;;;;;;;;5065153;28;20394;-63
2022/04/06 01:02:34;;;;;;;28.67;10.90;;;;;;;;;;5065467;28;20044;-62
2022/04/06 01:05:00;;;;;;;22.13;9.20;;;;;;;;;;5074258;22;20115;-65
2022/04/06 01:07:27;;;;;;;29.00;9.75;;;;;;;;;;5045929;28;20041;-64
2022/04/06 01:09:53;;;;;;;27.45;9.60;;;;;;;;;;5049147;28;20494;-65
2022/04/06 01:12:22;;;;;;;25.05;9.77;;;;;;;;;;5045821;28;20378;-64
2022/04/06 01:14:48;;;;;;;;;;;;;;;;;;5061491;28;20049;-64
2022/04/06 01:17:14;;;;;;;19.38;8.45;;;;;;;;;;5063554;28;19920;-64
2022/04/06 01:19:44;;;;;;;26.80;8.90;;;;;;;;;;5051005;28;20532;-64
2022/04/06 01:22:11;;;;;;;21.70;8.55;;;;;;;;;;5045047;28;20033;-64
2022/04/06 01:24:38;;;;;;;22.60;8.60;;;;;;;;;;5045623;28;20052;-64
2022/04/06 01:27:05;;;;;;;26.48;9.13;;;;;;;;;;5044574;28;20548;-65
2022/04/06 01:29:31;;;;;;;22.70;8.48;;;;;;;;;;5040428;28;20486;-64
2022/04/06 01:32:17;;;;;;;30.52;10.60;;;;;;;;;;5066609;28;20036;-65
2022/04/06 01:34:44;;;;;;;26.83;9.10;;;;;;;;;;5067943;28;20131;-64
2022/04/06 01:37:11;;;;;;;23.90;7.72;;;;;;;;;;5067482;28;20048;-64
2022/04/06 01:39:38;;;;;;;25.00;7.75;;;;;;;;;;5063833;28;20052;-64
2022/04/06 01:42:05;;;;;;;28.00;9.23;;;;;;;;;;5066228;28;20410;-65
2022/04/06 01:44:32;;;;;;;22.77;8.35;;;;;;;;;;5068076;28;20045;-64
2022/04/06 01:46:59;;;;;;;27.40;8.65;;;;;;;;;;5066456;28;20067;-64
2022/04/06 01:52:12;;;;;;;20.85;6.85;;;;;;;;;;5049178;28;20048;-64
2022/04/06 01:54:38;;;;;;;18.45;8.23;;;;;;;;;;5048669;28;20506;-64
2022/04/06 01:57:05;;;;;;;22.63;6.93;;;;;;;;;;5048084;28;20106;-64
2022/04/06 01:59:31;;;;;;;18.25;6.75;;;;;;;;;;5066963;28;20045;-64
2022/04/06 02:01:57;;;;;;;24.85;7.38;;;;;;;;;;5067205;28;20033;-64
2022/04/06 02:04:23;;;;;;;19.65;6.68;;;;;;;;;;5067140;28;20063;-65
2022/04/06 02:06:49;;;;;;;20.85;7.03;;;;;;;;;;5068338;28;20188;-63
2022/04/06 02:09:16;;;;;;;21.10;6.63;;;;;;;;;;5049644;28;20083;-64
2022/04/06 02:11:42;;;;;;;20.38;7.30;;;;;;;;;;5048652;28;20171;-64
2022/04/06 02:14:08;;;;;;;21.58;6.75;;;;;;;;;;5050787;28;20090;-64
2022/04/06 02:16:35;;;;;;;16.17;7.05;;;;;;;;;;5063663;28;20041;-64
2022/04/06 02:19:01;;;;;;;16.52;6.63;;;;;;;;;;5049335;28;20072;-64
2022/04/06 02:21:27;;;;;;;17.48;6.65;;;;;;;;;;5048971;28;20573;-64
2022/04/06 02:23:53;;;;;;;19.92;6.10;;;;;;;;;;5049314;28;20418;-65
2022/04/06 02:26:20;;;;;;;19.67;5.95;;;;;;;;;;5049861;28;20041;-64
2022/04/06 02:28:46;;;;;;;18.52;5.85;;;;;;;;;;5064255;28;20079;-64
2022/04/06 02:31:12;;;;;;;18.00;6.25;;;;;;;;;;5066437;28;20049;-64
2022/04/06 02:33:38;;;;;;;20.25;6.10;;;;;;;;;;5049142;28;20068;-64
2022/04/06 02:36:04;;;;;;;20.15;5.55;;;;;;;;;;5066816;28;20478;-64
2022/04/06 02:38:31;;;;;;;23.15;5.60;;;;;;;;;;5050337;28;20048;-64
2022/04/06 02:40:57;;;;;;;16.50;5.18;;;;;;;;;;5048101;28;20083;-64
2022/04/06 02:43:23;;;;;;;18.92;5.10;;;;;;;;;;5047050;28;20044;-64
2022/04/06 02:45:49;;;;;;;16.63;4.80;;;;;;;;;;5048864;28;20704;-64
2022/04/06 02:48:16;;;;;;;18.63;4.97;;;;;;;;;;5063538;28;20382;-64
2022/04/06 02:50:42;;;;;;;22.38;5.30;;;;;;;;;;5066576;28;20276;-64
2022/04/06 02:53:09;;;;;;;17.00;4.80;;;;;;;;;;5066473;28;20037;-64
2022/04/06 02:55:35;;;;;;;18.20;4.57;;;;;;;;;;5066403;28;20048;-64
2022/04/06 02:58:01;;;;;;;18.73;5.20;;;;;;;;;;5032789;28;20037;-64
2022/04/06 03:00:27;;;;;;;18.50;5.28;;;;;;;;;;5066636;28;20417;-64
2022/04/06 03:02:53;;;;;;;21.38;5.38;;;;;;;;;;5048054;28;20125;-65
2022/04/06 03:05:19;;;;;;;15.93;4.90;;;;;;;;;;5065936;28;20052;-64
2022/04/06 03:07:45;;;;;;;19.73;5.55;;;;;;;;;;5051465;28;20047;-64
2022/04/06 03:10:11;;;;;;;20.73;5.55;;;;;;;;;;5047170;28;20289;-64
2022/04/06 03:12:37;;;;;;;19.48;5.47;;;;;;;;;;5046943;28;20406;-64
2022/04/06 03:15:04;;;;;;;16.95;5.18;;;;;;;;;;5050738;28;20394;-64
2022/04/06 03:17:30;;;;;;;19.67;5.10;;;;;;;;;;5051319;28;20044;-64
2022/04/06 03:19:56;;;;;;;20.60;5.88;;;;;;;;;;5047455;28;20443;-65
2022/04/06 03:22:22;;;;;;;23.48;6.20;;;;;;;;;;5047622;28;20124;-65
2022/04/06 03:24:48;;;;;;;28.17;6.45;;;;;;;;;;5047771;28;20067;-64
2022/04/06 03:27:14;;;;;;;27.20;7.15;;;;;;;;;;5059775;28;20043;-64
2022/04/06 03:29:40;;;;;;;30.48;6.40;;;;;;;;;;5065599;28;20417;-64
2022/04/06 03:32:07;;;;;;;27.20;6.68;;;;;;;;;;5066018;28;20119;-64
2022/04/06 03:34:33;;;;;;;23.23;6.03;;;;;;;;;;5062194;28;20405;-64
2022/04/06 03:37:00;;;;;;;23.65;7.28;;;;;;;;;;5052032;28;20047;-64
2022/04/06 03:39:26;;;;;;;24.88;7.38;;;;;;;;;;5050922;28;20080;-64
2022/04/06 03:41:52;;;;;;;17.65;6.13;;;;;;;;;;5046120;28;20121;-65
2022/04/06 03:44:18;;;;;;;25.58;7.20;;;;;;;;;;5049637;28;20136;-64
2022/04/06 03:46:44;;;;;;;26.90;7.95;;;;;;;;;;5063844;28;20541;-64
2022/04/06 03:49:10;;;;;;;25.23;7.38;;;;;;;;;;5065444;28;20075;-64
2022/04/06 03:51:36;;;;;;;30.38;8.48;;;;;;;;;;5065339;28;20048;-64
2022/04/06 03:54:03;;;;;;;35.72;7.97;;;;;;;;;;5064922;28;20036;-64
2022/04/06 03:56:30;;;;;;;25.02;7.40;;;;;;;;;;5051236;28;20064;-64
2022/04/06 03:58:56;;;;;;;26.80;8.90;;;;;;;;;;5062498;28;20079;-65
2022/04/06 04:01:22;;;;;;;24.10;8.70;;;;;;;;;;5065721;28;20048;-66
2022/04/06 04:03:49;;;;;;;29.73;8.65;;;;;;;;;;5065867;28;20037;-64
2022/04/06 04:06:15;;;;;;;30.52;8.43;;;;;;;;;;5051024;28;20422;-64
2022/04/06 04:08:41;;;;;;;26.00;7.82;;;;;;;;;;5046584;28;20177;-64
2022/04/06 04:11:08;;;;;;;24.52;7.95;;;;;;;;;;5046040;28;20037;-64
2022/04/06 04:13:34;;;;;;;18.00;8.73;;;;;;;;;;5064032;28;20102;-63
2022/04/06 04:16:01;;;;;;;22.77;7.13;;;;;;;;;;5045547;28;20131;-64
2022/04/06 04:18:27;;;;;;;26.95;8.18;;;;;;;;;;5047157;28;20054;-64
2022/04/06 04:21:32;;;;;;;26.92;8.25;;;;;;;;;;5064547;28;20498;-65
2022/04/06 04:23:39;;;;;;;27.25;7.32;;;;;;;;;;5064482;28;20051;-64
2022/04/06 04:26:05;;;;;;;24.95;7.47;;;;;;;;;;5048123;28;20071;-64
2022/04/06 04:28:31;;;;;;;24.10;6.93;;;;;;;;;;5045662;28;20493;-63
2022/04/06 04:30:57;;;;;;;20.73;6.82;;;;;;;;;;5046255;28;20087;-64
2022/04/06 04:33:24;;;;;;;27.08;6.72;;;;;;;;;;5049543;28;20440;-65
2022/04/06 04:35:50;;;;;;;21.95;6.75;;;;;;;;;;5030901;28;20052;-64
2022/04/06 04:38:16;;;;;;;21.70;6.70;;;;;;;;;;5027499;28;20049;-64
2022/04/06 04:40:42;;;;;;;28.35;6.63;;;;;;;;;;5028177;28;20053;-65
2022/04/06 04:43:08;;;;;;;21.60;5.90;;;;;;;;;;5044967;28;20037;-65
2022/04/06 04:45:34;;;;;;;16.98;5.90;;;;;;;;;;5061753;28;20033;-65
2022/04/06 04:48:00;;;;;;;23.65;5.88;;;;;;;;;;5064589;28;20056;-65
2022/04/06 04:50:27;;;;;;;19.25;5.68;;;;;;;;;;5064407;28;20044;-65
2022/04/06 04:52:53;;;;;;;21.73;5.43;;;;;;;;;;5059143;28;20094;-65
2022/04/06 04:55:19;;;;;;;16.05;5.30;;;;;;;;;;5042956;28;20145;-65
2022/04/06 04:57:46;;;;;;;19.55;5.82;;;;;;;;;;5063953;28;20116;-65
2022/04/06 05:00:12;;;;;;;23.75;5.15;;;;;;;;;;5046495;28;20447;-65
2022/04/06 05:02:39;;;;;;;20.23;4.93;;;;;;;;;;5044233;28;20106;-64
2022/04/06 05:05:06;;;;;;;12.57;3.60;;;;;;;;;;5057860;28;20564;-65
2022/04/06 05:07:37;;;;;;;13.88;4.32;;;;;;;;;;5043208;28;20087;-66
2022/04/06 05:10:05;;;;;;;18.80;4.00;;;;;;;;;;5045594;28;20060;-64
2022/04/06 05:12:31;;;;;;;14.90;4.18;;;;;;;;;;5044532;28;20102;-65
2022/04/06 05:14:59;;;;;;;14.68;3.90;;;;;;;;;;5060758;28;20060;-66
2022/04/06 05:17:25;;;;;;;12.75;3.25;;;;;;;;;;5047921;28;20121;-66
2022/04/06 05:19:52;;;;;;;15.15;3.63;;;;;;;;;;5049523;28;20057;-65
2022/04/06 05:22:18;;;;;;;17.65;4.15;;;;;;;;;;5058595;28;20040;-65
2022/04/06 05:24:44;;;;;;;11.63;3.42;;;;;;;;;;5061883;28;20117;-66
2022/04/06 05:27:10;;;;;;;14.60;3.78;;;;;;;;;;5047157;28;20044;-67
2022/04/06 05:29:36;;;;;;;14.80;2.70;;;;;;;;;;5045917;28;20064;-67
2022/04/06 05:32:03;;;;;;;11.55;3.30;;;;;;;;;;5045318;28;20120;-68
2022/04/06 05:34:29;;;;;;;13.63;4.38;;;;;;;;;;5053179;28;20036;-69
2022/04/06 05:36:56;;;;;;;13.23;3.03;;;;;;;;;;5064055;28;20041;-66
2022/04/06 05:39:22;;;;;;;10.32;3.60;;;;;;;;;;5035782;28;20041;-67
2022/04/06 05:41:49;;;;;;;13.30;3.25;;;;;;;;;;5057135;28;20490;-65
2022/04/06 05:44:16;;;;;;;15.10;3.25;;;;;;;;;;5046440;28;20064;-66
2022/04/06 05:46:42;;;;;;;9.63;2.80;;;;;;;;;;5063008;28;20163;-66
2022/04/06 05:49:09;;;;;;;15.40;3.60;;;;;;;;;;5062050;28;20044;-66
2022/04/06 05:51:35;;;;;;;11.68;3.05;;;;;;;;;;5061971;28;20052;-67
2022/04/06 05:54:02;;;;;;;13.32;3.72;;;;;;;;;;5062233;28;20041;-66
2022/04/06 05:56:29;;;;;;;10.32;2.88;;;;;;;;;;5062441;28;20040;-66
2022/04/06 05:58:55;;;;;;;13.48;3.08;;;;;;;;;;5062778;28;20119;-66
2022/04/06 06:01:21;;;;;;;12.20;2.83;;;;;;;;;;5064570;28;20102;-66
2022/04/06 06:03:48;;;;;;;13.73;3.03;;;;;;;;;;5061865;28;20078;-66
2022/04/06 06:06:14;;;;;;;9.27;2.35;;;;;;;;;;5062147;28;20048;-68
2022/04/06 06:08:41;;;;;;;10.25;2.00;;;;;;;;;;5063539;28;20402;-69
2022/04/06 06:11:07;;;;;;;12.98;3.80;;;;;;;;;;5063472;28;20040;-66
2022/04/06 06:13:33;;;;;;;9.63;3.00;;;;;;;;;;5062112;28;20529;-66
2022/04/06 06:16:00;;;;;;;11.25;2.72;;;;;;;;;;5060416;28;20044;-66
2022/04/06 06:18:27;;;;;;;17.80;3.13;;;;;;;;;;5066661;28;20056;-66
2022/04/06 06:20:53;;;;;;;13.45;2.60;;;;;;;;;;5048992;28;20044;-66
2022/04/06 06:23:20;;;;;;;15.77;2.78;;;;;;;;;;5067397;28;20036;-66
2022/04/06 06:25:46;;;;;;;7.75;2.58;;;;;;;;;;5055508;28;20033;-66
2022/04/06 06:28:12;;;;;;;10.35;2.58;;;;;;;;;;5065889;28;20099;-66
2022/04/06 06:30:38;;;;;;;9.80;2.08;;;;;;;;;;5066957;28;20087;-66
2022/04/06 06:33:04;;;;;;;15.55;2.70;;;;;;;;;;5066452;28;20037;-66
2022/04/06 06:35:30;;;;;;;14.85;2.95;;;;;;;;;;5062090;28;20072;-66
2022/04/06 06:37:57;;;;;;;8.73;2.10;;;;;;;;;;5048167;28;20071;-66
2022/04/06 06:40:24;;;;;;;6.28;1.90;;;;;;;;;;5030534;28;20082;-66
2022/04/06 06:42:51;;;;;;;12.90;2.40;;;;;;;;;;5047826;28;20033;-65
2022/04/06 06:45:17;;;;;;;5.78;2.33;;;;;;;;;;5051408;28;20173;-66
2022/04/06 06:47:44;;;;;;;7.63;2.40;;;;;;;;;;5066667;28;20045;-66
2022/04/06 06:50:11;;;;;;;9.82;2.03;;;;;;;;;;5066132;28;20571;-66
2022/04/06 06:52:37;;;;;;;10.82;2.15;;;;;;;;;;5066057;28;20087;-66
2022/04/06 06:55:05;;;;;;;11.15;2.38;;;;;;;;;;5063112;28;20044;-66
2022/04/06 06:57:31;;;;;;;13.68;2.63;;;;;;;;;;5047096;28;20068;-66
2022/04/06 06:59:58;;;;;;;12.20;2.20;;;;;;;;;;5047874;28;20036;-66
2022/04/06 07:02:24;;;;;;;11.32;1.85;;;;;;;;;;5047540;28;20033;-66
2022/04/06 07:04:50;;;;;;;10.77;2.30;;;;;;;;;;5050894;28;20065;-65
2022/04/06 07:07:16;;;;;;;14.93;2.53;;;;;;;;;;5066243;28;20072;-65
2022/04/06 07:09:42;;;;;;;10.95;2.83;;;;;;;;;;5065881;28;20041;-66
2022/04/06 07:12:10;;;;;;;8.55;2.60;;;;;;;;;;5065349;28;20040;-65
2022/04/06 07:14:37;;;;;;;7.87;2.80;;;;;;;;;;5054547;28;20564;-66
2022/04/06 07:17:03;;;;;;;9.88;2.25;;;;;;;;;;5065455;28;20044;-66
2022/04/06 07:19:29;;;;;;;10.30;2.38;;;;;;;;;;5066434;28;20072;-66
2022/04/06 07:21:56;;;;;;;13.20;2.47;;;;;;;;;;5049942;28;20434;-66
2022/04/06 07:24:22;;;;;;;13.15;2.55;;;;;;;;;;5050892;28;20059;-66
2022/04/06 07:26:48;;;;;;;16.17;2.28;;;;;;;;;;5065424;28;20041;-66
2022/04/06 07:29:15;;;;;;;11.75;3.35;;;;;;;;;;5065599;28;20131;-66
2022/04/06 07:31:43;;;;;;;11.27;2.42;;;;;;;;;;5065982;28;20048;-66
2022/04/06 07:34:09;;;;;;;13.25;3.15;;;;;;;;;;5062877;28;20474;-66
2022/04/06 07:36:36;;;;;;;8.68;2.60;;;;;;;;;;5047219;28;20048;-66
2022/04/06 07:39:03;;;;;;;17.65;3.65;;;;;;;;;;5046720;28;20097;-66
2022/04/06 07:41:31;;;;;;;10.48;2.80;;;;;;;;;;5046749;28;20047;-66
2022/04/06 07:43:57;;;;;;;13.27;2.90;;;;;;;;;;5049432;28;20138;-66
2022/04/06 07:46:23;;;;;;;14.13;3.15;;;;;;;;;;5064861;28;20648;-66
2022/04/06 07:48:49;;;;;;;14.18;3.00;;;;;;;;;;5065991;28;20594;-66
2022/04/06 07:51:16;;;;;;;15.30;3.10;;;;;;;;;;5065146;28;20037;-65
2022/04/06 07:53:42;;;;;;;9.80;2.70;;;;;;;;;;5062994;28;20714;-66
2022/04/06 07:56:08;;;;;;;13.55;3.10;;;;;;;;;;5045344;28;20510;-66
2022/04/06 07:58:35;;;;;;;21.42;3.70;;;;;;;;;;5048933;28;20058;-66
2022/04/06 08:01:02;;;;;;;10.65;2.80;;;;;;;;;;5046459;28;20143;-66
2022/04/06 08:03:29;;;;;;;16.53;3.53;;;;;;;;;;5057302;28;20625;-66
2022/04/06 08:05:56;;;;;;;16.17;3.10;;;;;;;;;;5064534;28;20059;-66
2022/04/06 08:08:22;;;;;;;8.88;2.78;;;;;;;;;;5065184;28;20032;-67
2022/04/06 08:10:48;;;;;;;16.02;4.25;;;;;;;;;;5049831;28;20044;-65
2022/04/06 08:13:15;;;;;;;12.32;2.95;;;;;;;;;;5058050;28;20047;-66
2022/04/06 08:15:41;;;;;;;11.07;3.13;;;;;;;;;;5046505;28;20076;-65
2022/04/06 08:18:07;;;;;;;16.60;3.50;;;;;;;;;;5062386;28;20131;-66
2022/04/06 08:20:34;;;;;;;18.98;3.78;;;;;;;;;;5064645;28;20474;-66
2022/04/06 08:23:00;;;;;;;19.95;4.25;;;;;;;;;;5062009;28;20848;-66
2022/04/06 08:25:27;;;;;;;18.85;3.65;;;;;;;;;;5055469;28;20037;-66
2022/04/06 08:27:53;;;;;;;13.40;4.13;;;;;;;;;;5055030;28;20029;-66
2022/04/06 08:30:20;;;;;;;17.45;4.10;;;;;;;;;;5046631;28;20045;-66
2022/04/06 08:32:47;;;;;;;12.32;4.13;;;;;;;;;;5052698;28;20091;-66
2022/04/06 08:35:13;;;;;;;15.20;4.10;;;;;;;;;;5064385;28;20032;-66
2022/04/06 08:37:40;;;;;;;17.23;4.07;;;;;;;;;;5064281;28;20468;-66
2022/04/06 08:40:08;;;;;;;15.63;4.00;;;;;;;;;;5064033;28;20079;-66
2022/04/06 08:42:35;;;;;;;19.90;4.45;;;;;;;;;;5061211;28;20033;-66
2022/04/06 08:45:01;;;;;;;15.63;3.67;;;;;;;;;;5027572;28;20106;-66
2022/04/06 08:47:31;;;;;;;12.13;3.83;;;;;;;;;;5027936;28;20076;-66
2022/04/06 08:49:57;;;;;;;12.35;3.72;;;;;;;;;;5027683;28;20048;-66
2022/04/06 08:52:24;;;;;;;14.23;3.58;;;;;;;;;;5049023;28;20062;-66
2022/04/06 08:54:50;;;;;;;14.15;3.58;;;;;;;;;;5064483;28;20041;-65
2022/04/06 08:57:18;;;;;;;18.27;3.92;;;;;;;;;;5044663;28;20051;-65
2022/04/06 08:59:46;;;;;;;17.27;3.65;;;;;;;;;;5064511;28;20040;-65
2022/04/06 09:02:17;;;;;;;11.95;3.72;;;;;;;;;;5060527;28;20041;-66
2022/04/06 09:04:43;;;;;;;8.25;2.95;;;;;;;;;;5061174;28;20047;-65
2022/04/06 09:07:10;;;;;;;14.82;2.50;;;;;;;;;;5064196;28;20067;-65
2022/04/06 09:09:37;;;;;;;13.52;2.90;;;;;;;;;;5046229;28;20401;-66
2022/04/06 09:12:08;;;;;;;11.40;2.47;;;;;;;;;;5058484;28;20128;-66
2022/04/06 09:14:34;;;;;;;14.95;2.75;;;;;;;;;;5045622;28;20930;-66
2022/04/06 09:17:01;;;;;;;10.75;3.10;;;;;;;;;;5049389;28;20041;-66
2022/04/06 09:19:28;;;;;;;9.85;3.20;;;;;;;;;;5063380;28;20037;-65
2022/04/06 09:21:55;;;;;;;9.43;3.17;;;;;;;;;;5059107;28;20037;-65
2022/04/06 09:24:24;;;;;;;12.30;2.58;;;;;;;;;;5046081;28;20041;-65
2022/04/06 09:27:00;;;;;;;9.93;2.25;;;;;;;;;;5060267;28;20043;-66
2022/04/06 09:29:26;;;;;;;11.45;2.30;;;;;;;;;;5064443;28;20059;-65
2022/04/06 09:31:53;;;;;;;11.15;2.45;;;;;;;;;;5057479;28;21858;-66
2022/04/06 09:34:23;;;;;;;6.47;2.55;;;;;;;;;;5045690;28;20394;-65
2022/04/06 09:36:56;;;;;;;9.20;2.22;;;;;;;;;;5032289;28;20079;-65
2022/04/06 09:39:42;;;;;;;18.17;2.90;;;;;;;;;;5063865;28;20124;-66
2022/04/06 09:42:09;;;;;;;9.98;2.47;;;;;;;;;;5052810;28;20055;-65
2022/04/06 09:47:40;;;;;;;10.52;3.08;;;;;;;;;;5063520;28;20076;-65
2022/04/06 09:50:10;;;;;;;11.57;2.83;;;;;;;;;;5051826;28;20191;-65
2022/04/06 09:52:37;;;;;;;11.30;3.25;;;;;;;;;;5061178;28;20556;-65
2022/04/06 09:55:06;;;;;;;11.95;3.95;;;;;;;;;;5052872;28;20491;-66
2022/04/06 09:57:39;;;;;;;11.60;3.30;;;;;;;;;;5048407;28;20128;-66
2022/04/06 10:00:06;;;;;;;16.67;3.95;;;;;;;;;;5048753;28;20043;-65
2022/04/06 10:02:34;;;;;;;13.05;3.70;;;;;;;;;;5065480;28;20056;-65
2022/04/06 10:05:02;;;;;;;16.67;4.05;;;;;;;;;;5067134;28;20455;-66
2022/04/06 10:07:28;;;;;;;19.17;4.32;;;;;;;;;;5067504;28;20040;-66
2022/04/06 10:09:55;;;;;;;14.57;3.92;;;;;;;;;;5065499;28;20090;-65
2022/04/06 10:12:22;;;;;;;12.20;4.20;;;;;;;;;;5067586;28;20064;-65
2022/04/06 10:14:48;;;;;;;17.23;4.50;;;;;;;;;;5044341;28;20041;-65
2022/04/06 10:17:16;;;;;;;18.50;4.35;;;;;;;;;;5048181;28;20130;-65
2022/04/06 10:19:46;;;;;;;12.10;4.70;;;;;;;;;;5063290;28;20048;-65
2022/04/06 10:22:17;;;;;;;16.48;4.28;;;;;;;;;;5048561;28;20033;-65
2022/04/06 10:25:02;;;;;;;7.78;4.05;;;;;;;;;;5049051;28;20041;-65
2022/04/06 10:27:32;;;;;;;9.40;4.45;;;;;;;;;;5059726;28;20083;-65
2022/04/06 10:30:14;;;;;;;17.15;5.63;;;;;;;;;;5060302;28;20056;-66
2022/04/06 10:32:41;;;;;;;18.55;5.80;;;;;;;;;;5064280;28;20048;-66
2022/04/06 10:35:17;;;;;;;12.90;5.28;;;;;;;;;;5066976;28;20517;-66
2022/04/06 10:37:49;;;;;;;12.52;5.50;;;;;;;;;;5066874;28;20048;-65
2022/04/06 10:40:15;;;;;;;13.73;4.93;;;;;;;;;;5060094;28;20056;-65
2022/04/06 10:42:43;;;;;;;14.27;4.75;;;;;;;;;;5047152;28;20055;-65
2022/04/06 10:45:30;;;;;;;13.10;4.32;;;;;;;;;;5047410;28;20045;-65
2022/04/06 10:48:10;;;;;;;14.23;5.53;;;;;;;;;;5062415;28;20421;-65
2022/04/06 10:50:36;;;;;;;14.77;4.88;;;;;;;;;;5055549;28;20102;-66
2022/04/06 10:53:26;;;;;;;16.40;4.68;;;;;;;;;;5062800;28;20102;-66
2022/04/06 10:55:58;;;;;;;15.30;4.97;;;;;;;;;;5065597;28;20131;-65
2022/04/06 10:58:26;;;;;;;12.48;4.57;;;;;;;;;;5065424;28;20048;-66
2022/04/06 11:01:11;;;;;;;16.27;5.00;;;;;;;;;;5047773;28;20041;-66
2022/04/06 11:03:41;;;;;;;13.35;5.10;;;;;;;;;;5047355;28;20179;-65
2022/04/06 11:06:07;;;;;;;14.18;4.95;;;;;;;;;;5047193;28;20059;-65
2022/04/06 11:11:38;;;;;;;10.82;4.97;;;;;;;;;;5045106;28;20490;-66
2022/04/06 11:14:04;;;;;;;14.57;6.03;;;;;;;;;;5054516;28;20041;-66
2022/04/06 11:16:42;;;;;;;20.50;6.25;;;;;;;;;;5050688;28;20435;-66
2022/04/06 11:19:08;;;;;;;13.00;5.38;;;;;;;;;;5043635;28;20045;-66
2022/04/06 11:21:35;;;;;;;14.10;6.00;;;;;;;;;;5041583;28;20045;-67
2022/04/06 11:24:01;;;;;;;20.73;6.40;;;;;;;;;;5047182;28;20040;-66
2022/04/06 11:26:27;;;;;;;14.88;6.72;;;;;;;;;;5047469;28;20033;-66
2022/04/06 11:28:59;;;;;;;14.32;5.80;;;;;;;;;;5048177;28;20036;-67
2022/04/06 11:31:25;;;;;;;17.35;6.32;;;;;;;;;;5054343;28;20055;-66
2022/04/06 11:33:52;;;;;;;13.38;6.38;;;;;;;;;;5056800;28;20090;-68
2022/04/06 11:36:19;;;;;;;15.30;6.70;;;;;;;;;;5063541;28;20048;-66
2022/04/06 11:38:49;;;;;;;15.80;6.03;;;;;;;;;;5063223;28;20039;-66
2022/04/06 11:41:16;;;;;;;17.70;6.75;;;;;;;;;;5062459;28;20565;-66
2022/04/06 11:43:42;;;;;;;17.48;6.53;;;;;;;;;;5063530;28;20178;-66
2022/04/06 11:46:08;;;;;;;14.45;6.40;;;;;;;;;;5062294;28;20037;-67
2022/04/06 11:48:40;;;;;;;13.23;6.22;;;;;;;;;;5063109;28;20538;-66
2022/04/06 11:51:06;;;;;;;20.38;6.78;;;;;;;;;;5061554;28;20048;-67
2022/04/06 11:53:33;;;;;;;15.50;6.45;;;;;;;;;;5062691;28;20036;-67
2022/04/06 11:56:01;;;;;;;17.83;6.20;;;;;;;;;;5059318;28;20040;-67
2022/04/06 11:58:28;;;;;;;;;;;;;;;;;;5064016;28;20041;-67
2022/04/06 12:00:58;;;;;;;14.18;6.32;;;;;;;;;;5052968;28;20008;-67
2022/04/06 12:03:31;;;;;;;15.18;6.22;;;;;;;;;;5048009;28;20116;-67
2022/04/06 12:05:57;;;;;;;23.42;6.65;;;;;;;;;;5046258;28;20128;-67
2022/04/06 12:08:23;;;;;;;12.90;5.90;;;;;;;;;;5046506;28;20041;-67
2022/04/06 12:10:50;;;;;;;21.58;6.75;;;;;;;;;;5055349;28;20840;-66
2022/04/06 12:13:18;;;;;;;14.88;7.35;;;;;;;;;;5064794;28;20040;-66
2022/04/06 12:15:48;;;;;;;14.87;7.20;;;;;;;;;;5052698;28;20049;-67
2022/04/06 12:18:16;;;;;;;18.08;6.53;;;;;;;;;;5045660;28;20664;-66
2022/04/06 12:20:42;;;;;;;16.58;6.70;;;;;;;;;;5056556;28;20052;-66
2022/04/06 12:23:08;;;;;;;15.63;6.47;;;;;;;;;;5064214;28;20512;-67
2022/04/06 12:25:35;;;;;;;17.40;6.28;;;;;;;;;;5064170;28;20091;-67
2022/04/06 12:28:11;;;;;;;16.92;6.75;;;;;;;;;;5064777;28;20166;-67
2022/04/06 12:30:50;;;;;;;13.27;6.22;;;;;;;;;;5052902;28;20513;-67
2022/04/06 12:33:32;;;;;;;15.02;5.45;;;;;;;;;;5060499;28;20083;-67
2022/04/06 12:36:05;;;;;;;16.60;6.50;;;;;;;;;;5064108;28;20374;-67
2022/04/06 12:38:31;;;;;;;13.10;6.45;;;;;;;;;;5064636;28;20036;-67
2022/04/06 12:41:06;;;;;;;16.98;6.30;;;;;;;;;;5054815;28;20070;-67
2022/04/06 12:43:32;;;;;;;12.90;5.93;;;;;;;;;;5061714;28;20490;-66
2022/04/06 12:45:58;;;;;;;14.18;5.32;;;;;;;;;;5062745;28;20040;-66
2022/04/06 12:48:24;;;;;;;17.95;6.18;;;;;;;;;;5061160;28;20047;-67
2022/04/06 12:50:51;;;;;;;11.57;5.38;;;;;;;;;;5061624;28;20047;-67
2022/04/06 12:53:20;;;;;;;14.57;5.78;;;;;;;;;;5064706;28;20115;-67
2022/04/06 12:55:46;;;;;;;13.82;5.95;;;;;;;;;;5060615;28;20130;-67
2022/04/06 12:58:19;;;;;;;14.40;6.53;;;;;;;;;;5045851;28;20064;-67
2022/04/06 13:00:45;;;;;;;14.52;6.15;;;;;;;;;;5044606;28;20127;-67
2022/04/06 13:03:12;;;;;;;13.55;5.80;;;;;;;;;;5059852;28;20117;-67
2022/04/06 13:05:38;;;;;;;10.85;4.93;;;;;;;;;;5064888;28;20502;-67
2022/04/06 13:08:05;;;;;;;14.68;5.60;;;;;;;;;;5055113;28;20048;-67
2022/04/06 13:10:34;;;;;;;15.65;5.70;;;;;;;;;;5056621;28;20115;-67
2022/04/06 13:13:01;;;;;;;15.88;6.47;;;;;;;;;;5061917;28;20128;-67
2022/04/06 13:15:28;;;;;;;15.10;6.53;;;;;;;;;;5053525;28;20040;-67
2022/04/06 13:17:54;;;;;;;18.05;6.40;;;;;;;;;;5047145;28;20048;-68
2022/04/06 13:20:21;;;;;;;11.98;6.43;;;;;;;;;;5045286;28;20040;-68
2022/04/06 13:22:48;;;;;;;17.15;6.55;;;;;;;;;;5064852;28;20040;-68
2022/04/06 13:25:14;;;;;;;11.90;6.68;;;;;;;;;;5064114;28;20405;-68
2022/04/06 13:27:42;;;;;;;15.55;6.72;;;;;;;;;;5068986;28;20040;-68
2022/04/06 13:30:10;;;;;;;14.40;7.67;;;;;;;;;;5050780;28;20044;-68
2022/04/06 13:32:36;;;;;;;21.17;7.15;;;;;;;;;;5050281;28;20572;-67
2022/04/06 13:35:03;;;;;;;13.93;6.82;;;;;;;;;;5049827;28;20072;-68
2022/04/06 13:37:29;;;;;;;17.85;6.80;;;;;;;;;;5054628;28;20119;-69
2022/04/06 13:39:55;;;;;;;14.02;7.07;;;;;;;;;;5051425;28;20502;-69
2022/04/06 13:42:26;;;;;;;17.20;6.75;;;;;;;;;;5032194;28;20044;-69
2022/04/06 13:44:54;;;;;;;17.98;7.35;;;;;;;;;;5064950;28;20037;-69
2022/04/06 13:47:23;;;;;;;15.27;7.25;;;;;;;;;;5069267;28;20105;-69
2022/04/06 13:49:50;;;;;;;22.50;7.82;;;;;;;;;;5065409;28;20037;-69
2022/04/06 13:52:16;;;;;;;14.73;7.60;;;;;;;;;;5067458;28;20464;-68
2022/04/06 13:54:42;;;;;;;12.45;6.10;;;;;;;;;;5066337;28;20421;-68
2022/04/06 13:57:09;;;;;;;11.80;5.70;;;;;;;;;;5065667;28;20040;-69
2022/04/06 13:59:36;;;;;;;8.48;4.68;;;;;;;;;;5049927;28;20059;-70
2022/04/06 14:02:02;;;;;;;10.65;5.03;;;;;;;;;;5063078;28;20058;-69
2022/04/06 14:04:29;;;;;;;12.45;5.28;;;;;;;;;;5063818;28;20060;-68
2022/04/06 14:06:56;;;;;;;10.68;5.35;;;;;;;;;;5064435;28;20863;-69
2022/04/06 14:09:22;;;;;;;9.30;5.53;;;;;;;;;;5064901;28;20056;-69
2022/04/06 14:11:51;;;;;;;12.57;5.63;;;;;;;;;;5065963;28;20468;-68
2022/04/06 14:14:17;;;;;;;13.23;5.22;;;;;;;;;;5065758;28;20048;-68
2022/04/06 14:16:44;;;;;;;13.88;5.78;;;;;;;;;;5055045;28;20163;-68
2022/04/06 14:19:12;;;;;;;7.93;4.53;;;;;;;;;;5046322;28;20440;-70
2022/04/06 14:21:38;;;;;;;13.00;4.85;;;;;;;;;;5067787;28;20529;-70
2022/04/06 14:24:05;;;;;;;7.60;3.55;;;;;;;;;;5066908;28;20043;-68
2022/04/06 14:26:31;;;;;;;6.60;3.70;;;;;;;;;;5066571;28;20051;-69
2022/04/06 14:28:57;;;;;;;5.47;3.60;;;;;;;;;;5031170;28;20832;-69
2022/04/06 14:31:24;;;;;;;5.93;3.28;;;;;;;;;;5030853;28;20048;-68
2022/04/06 14:33:51;;;;;;;11.55;3.10;;;;;;;;;;5065963;28;20044;-68
2022/04/06 14:36:18;;;;;;;7.05;2.78;;;;;;;;;;5068174;28;20040;-68
2022/04/06 14:38:45;;;;;;;4.85;1.80;;;;;;;;;;5051575;28;20045;-68
2022/04/06 14:41:11;;;;;;;4.78;1.95;;;;;;;;;;5049830;28;20045;-69